Mayflower, Texas
Current Conditions -  °F | °C
As of 12:15 PM on Wednesday 26 Nov 2014 (Local Time) from KJAS Reporting Station
Clear Clear  
Wind Chill: 65°   Ceiling: Unl
Heat Index: 65°   Visibility: 10mi
Dew Point: 35°   Wind: 16mph
Humidity: 33%   Direction: 230°SW
Pressure: 30.19"   Gusts: 24mph
Location:  31.0751°N, 93.8073°W
Report Text: KJAS 261815Z AUTO 23014G21KT 10SM CLR 19/02 A3019 RMK AO2 T01860018
Loading
Personal Weather Stations






























Interactive Weather Map New forecast layout! Learn more

10-Day Weather Forecast

Advertisements
Track Severe Weather on mobile